Fugaku Maru — JH3428 — position and weather

sailwx.info

Track history (hours):
 
Tides and Currents Weather Stations Pressure Air Temp Water Temp Dewpoint Dewpoint Depression Visibility Wind Speed Wind Dir Waves Ship Positions

Fugaku Maru

Last reported at 2017-Nov-16 19:59 UTC. Time now 2017-Nov-19 10:47 UTC.
Position N 34°52' E 140°03'.

Length 165 m; draft 7.2 m.

Type: Cargo ship. MMSI: 431200176.

Date/timePositionNaut miles runAvg speedWind from/ knotsBaromVisibWave heightAir tempDewpointWater temp
2017-Nov-16 19:59N 34°52' E 140°03'919.4
2017-Nov-16 19:30N 34°47' E 139°54'25 1.1
2017-Nov-15 21:27N 34°38' E 139°25'919.9
2017-Nov-15 20:59N 34°41' E 139°35'1020.3
2017-Nov-15 20:29N 34°46' E 139°46'1220.7
2017-Nov-15 19:55N 34°51' E 139°59'  
2017-Nov-12 19:27N 34°54' E 140°05'1220.8
2017-Nov-12 18:51N 34°48' E 139°52'720.3
2017-Nov-12 18:29N 34°44' E 139°44'7 0.3
2017-Nov-11 21:00N 34°42' E 139°36'1021.1
2017-Nov-11 20:30N 34°47' E 139°47'1220.2
2017-Nov-11 19:56N 34°52' E 139°60'  
Track history (hours):
 
Tides and Currents Weather Stations Pressure Air Temp Water Temp Dewpoint Dewpoint Depression Visibility Wind Speed Wind Dir Waves Ship Positions

Fugaku Maru

Last reported at 2017-Nov-16 19:59 UTC. Time now 2017-Nov-19 10:47 UTC.
Position N 34°52' E 140°03'.

Length 165 m; draft 7.2 m.

Type: Cargo ship. MMSI: 431200176.

Date/timePositionNaut miles runAvg speedWind from/ knotsBaromVisibWave heightAir tempDewpointWater temp
2017-Nov-16 19:59N 34°52' E 140°03'919.4
2017-Nov-16 19:30N 34°47' E 139°54'25 1.1
2017-Nov-15 21:27N 34°38' E 139°25'919.9
2017-Nov-15 20:59N 34°41' E 139°35'1020.3
2017-Nov-15 20:29N 34°46' E 139°46'1220.7
2017-Nov-15 19:55N 34°51' E 139°59'  
2017-Nov-12 19:27N 34°54' E 140°05'1220.8
2017-Nov-12 18:51N 34°48' E 139°52'720.3
2017-Nov-12 18:29N 34°44' E 139°44'7 0.3
2017-Nov-11 21:00N 34°42' E 139°36'1021.1
2017-Nov-11 20:30N 34°47' E 139°47'1220.2
2017-Nov-11 19:56N 34°52' E 139°60'  

Dump ship's entire track history